sensor_id;sensor_type;location;lat;lon;timestamp;P1;durP1;ratioP1;P2;durP2;ratioP2
22334;SDS011;11335;43.848;25.958;2023-12-07T00:01:50;32.75;;;16.55;;
22334;SDS011;11335;43.848;25.958;2023-12-07T00:04:35;36.20;;;18.10;;
22334;SDS011;11335;43.848;25.958;2023-12-07T00:07:21;31.73;;;16.60;;
22334;SDS011;11335;43.848;25.958;2023-12-07T00:10:06;32.80;;;17.02;;
22334;SDS011;11335;43.848;25.958;2023-12-07T00:12:52;37.60;;;17.88;;
22334;SDS011;11335;43.848;25.958;2023-12-07T00:15:38;35.80;;;17.75;;
22334;SDS011;11335;43.848;25.958;2023-12-07T00:18:23;38.25;;;17.70;;
22334;SDS011;11335;43.848;25.958;2023-12-07T00:21:09;36.45;;;17.52;;
22334;SDS011;11335;43.848;25.958;2023-12-07T00:23:55;34.35;;;16.95;;
22334;SDS011;11335;43.848;25.958;2023-12-07T00:26:41;37.75;;;17.15;;
22334;SDS011;11335;43.848;25.958;2023-12-07T00:29:26;33.72;;;16.20;;
22334;SDS011;11335;43.848;25.958;2023-12-07T00:32:12;37.83;;;16.90;;
22334;SDS011;11335;43.848;25.958;2023-12-07T00:34:58;32.83;;;16.70;;
22334;SDS011;11335;43.848;25.958;2023-12-07T00:37:43;36.80;;;17.75;;
22334;SDS011;11335;43.848;25.958;2023-12-07T00:40:29;33.97;;;16.88;;
22334;SDS011;11335;43.848;25.958;2023-12-07T00:43:14;34.97;;;17.27;;
22334;SDS011;11335;43.848;25.958;2023-12-07T00:46:00;37.83;;;17.35;;
22334;SDS011;11335;43.848;25.958;2023-12-07T00:48:45;36.83;;;16.90;;
22334;SDS011;11335;43.848;25.958;2023-12-07T00:51:31;37.67;;;17.30;;
22334;SDS011;11335;43.848;25.958;2023-12-07T00:54:17;39.00;;;17.70;;
22334;SDS011;11335;43.848;25.958;2023-12-07T00:57:02;42.13;;;17.85;;
22334;SDS011;11335;43.848;25.958;2023-12-07T00:59:48;39.22;;;17.92;;
22334;SDS011;11335;43.848;25.958;2023-12-07T01:02:34;39.38;;;17.52;;
22334;SDS011;11335;43.848;25.958;2023-12-07T01:05:19;38.40;;;18.63;;
22334;SDS011;11335;43.848;25.958;2023-12-07T01:08:05;40.25;;;18.77;;
22334;SDS011;11335;43.848;25.958;2023-12-07T01:10:50;39.15;;;18.35;;
22334;SDS011;11335;43.848;25.958;2023-12-07T01:13:36;35.10;;;17.08;;
22334;SDS011;11335;43.848;25.958;2023-12-07T01:16:21;35.25;;;17.52;;
22334;SDS011;11335;43.848;25.958;2023-12-07T01:19:07;35.75;;;17.23;;
22334;SDS011;11335;43.848;25.958;2023-12-07T01:21:53;39.15;;;17.50;;
22334;SDS011;11335;43.848;25.958;2023-12-07T01:24:38;39.35;;;18.02;;
22334;SDS011;11335;43.848;25.958;2023-12-07T01:27:24;40.88;;;17.33;;
22334;SDS011;11335;43.848;25.958;2023-12-07T01:30:09;38.78;;;17.63;;
22334;SDS011;11335;43.848;25.958;2023-12-07T01:32:55;36.17;;;17.80;;
22334;SDS011;11335;43.848;25.958;2023-12-07T01:35:41;39.58;;;17.52;;
22334;SDS011;11335;43.848;25.958;2023-12-07T01:38:26;37.70;;;16.73;;
22334;SDS011;11335;43.848;25.958;2023-12-07T01:41:12;37.95;;;17.75;;
22334;SDS011;11335;43.848;25.958;2023-12-07T01:43:57;38.63;;;17.90;;
22334;SDS011;11335;43.848;25.958;2023-12-07T01:46:43;40.53;;;18.08;;
22334;SDS011;11335;43.848;25.958;2023-12-07T01:49:29;38.45;;;17.60;;
22334;SDS011;11335;43.848;25.958;2023-12-07T01:52:14;36.35;;;17.05;;
22334;SDS011;11335;43.848;25.958;2023-12-07T01:55:00;38.17;;;18.55;;
22334;SDS011;11335;43.848;25.958;2023-12-07T01:57:45;37.42;;;17.02;;
22334;SDS011;11335;43.848;25.958;2023-12-07T02:00:31;36.42;;;16.70;;
22334;SDS011;11335;43.848;25.958;2023-12-07T02:03:18;36.55;;;17.65;;
22334;SDS011;11335;43.848;25.958;2023-12-07T02:06:06;36.30;;;17.52;;
22334;SDS011;11335;43.848;25.958;2023-12-07T02:08:53;34.80;;;16.40;;
22334;SDS011;11335;43.848;25.958;2023-12-07T02:11:39;34.88;;;16.58;;
22334;SDS011;11335;43.848;25.958;2023-12-07T02:14:25;38.38;;;16.73;;
22334;SDS011;11335;43.848;25.958;2023-12-07T02:23:03;37.88;;;16.27;;
22334;SDS011;11335;43.848;25.958;2023-12-07T02:29:12;31.25;;;14.35;;
22334;SDS011;11335;43.848;25.958;2023-12-07T02:31:58;35.80;;;15.88;;
22334;SDS011;11335;43.848;25.958;2023-12-07T02:34:44;39.30;;;16.48;;
22334;SDS011;11335;43.848;25.958;2023-12-07T02:37:31;33.15;;;15.90;;
22334;SDS011;11335;43.848;25.958;2023-12-07T02:40:20;35.97;;;16.42;;
22334;SDS011;11335;43.848;25.958;2023-12-07T02:43:07;34.10;;;14.68;;
22334;SDS011;11335;43.848;25.958;2023-12-07T02:45:53;35.15;;;14.65;;
22334;SDS011;11335;43.848;25.958;2023-12-07T02:48:38;33.05;;;15.75;;
22334;SDS011;11335;43.848;25.958;2023-12-07T02:51:24;31.80;;;14.27;;
22334;SDS011;11335;43.848;25.958;2023-12-07T02:54:10;30.35;;;14.02;;
22334;SDS011;11335;43.848;25.958;2023-12-07T02:56:55;32.22;;;13.82;;
22334;SDS011;11335;43.848;25.958;2023-12-07T02:59:41;28.77;;;12.82;;
22334;SDS011;11335;43.848;25.958;2023-12-07T03:02:26;25.88;;;12.77;;
22334;SDS011;11335;43.848;25.958;2023-12-07T03:05:12;27.77;;;12.48;;
22334;SDS011;11335;43.848;25.958;2023-12-07T03:07:58;26.00;;;12.75;;
22334;SDS011;11335;43.848;25.958;2023-12-07T03:10:43;26.33;;;12.05;;
22334;SDS011;11335;43.848;25.958;2023-12-07T03:13:29;23.17;;;11.52;;
22334;SDS011;11335;43.848;25.958;2023-12-07T03:16:14;24.98;;;11.75;;
22334;SDS011;11335;43.848;25.958;2023-12-07T03:19:00;21.73;;;10.50;;
22334;SDS011;11335;43.848;25.958;2023-12-07T03:21:46;22.88;;;10.65;;
22334;SDS011;11335;43.848;25.958;2023-12-07T03:24:32;23.52;;;11.05;;
22334;SDS011;11335;43.848;25.958;2023-12-07T03:27:18;25.40;;;11.90;;
22334;SDS011;11335;43.848;25.958;2023-12-07T03:30:04;23.08;;;11.27;;
22334;SDS011;11335;43.848;25.958;2023-12-07T03:32:49;23.35;;;10.75;;
22334;SDS011;11335;43.848;25.958;2023-12-07T03:35:35;20.85;;;9.63;;
22334;SDS011;11335;43.848;25.958;2023-12-07T03:38:21;19.52;;;9.63;;
22334;SDS011;11335;43.848;25.958;2023-12-07T03:41:06;22.67;;;10.38;;
22334;SDS011;11335;43.848;25.958;2023-12-07T03:43:52;22.58;;;10.65;;
22334;SDS011;11335;43.848;25.958;2023-12-07T03:46:37;23.98;;;11.32;;
22334;SDS011;11335;43.848;25.958;2023-12-07T03:49:23;21.90;;;10.38;;
22334;SDS011;11335;43.848;25.958;2023-12-07T03:52:08;22.70;;;10.55;;
22334;SDS011;11335;43.848;25.958;2023-12-07T03:54:54;22.95;;;10.98;;
22334;SDS011;11335;43.848;25.958;2023-12-07T03:57:40;22.40;;;10.73;;
22334;SDS011;11335;43.848;25.958;2023-12-07T04:00:26;19.05;;;10.40;;
22334;SDS011;11335;43.848;25.958;2023-12-07T04:03:12;21.73;;;11.38;;
22334;SDS011;11335;43.848;25.958;2023-12-07T04:05:57;29.15;;;12.23;;
22334;SDS011;11335;43.848;25.958;2023-12-07T04:08:43;20.90;;;11.13;;
22334;SDS011;11335;43.848;25.958;2023-12-07T04:11:29;24.20;;;11.85;;
22334;SDS011;11335;43.848;25.958;2023-12-07T04:14:14;25.38;;;12.32;;
22334;SDS011;11335;43.848;25.958;2023-12-07T04:17:00;22.63;;;11.10;;
22334;SDS011;11335;43.848;25.958;2023-12-07T04:19:46;24.40;;;11.98;;
22334;SDS011;11335;43.848;25.958;2023-12-07T04:22:31;27.33;;;12.02;;
22334;SDS011;11335;43.848;25.958;2023-12-07T04:25:17;20.73;;;10.65;;
22334;SDS011;11335;43.848;25.958;2023-12-07T04:28:02;20.67;;;10.95;;
22334;SDS011;11335;43.848;25.958;2023-12-07T04:30:48;21.77;;;10.75;;
22334;SDS011;11335;43.848;25.958;2023-12-07T04:33:34;23.55;;;10.50;;
22334;SDS011;11335;43.848;25.958;2023-12-07T04:36:19;22.60;;;11.00;;
22334;SDS011;11335;43.848;25.958;2023-12-07T04:39:05;22.25;;;10.82;;
22334;SDS011;11335;43.848;25.958;2023-12-07T04:41:50;20.88;;;9.98;;
22334;SDS011;11335;43.848;25.958;2023-12-07T04:44:36;21.98;;;10.80;;
22334;SDS011;11335;43.848;25.958;2023-12-07T04:47:22;17.65;;;9.63;;
22334;SDS011;11335;43.848;25.958;2023-12-07T04:50:09;17.73;;;8.98;;
22334;SDS011;11335;43.848;25.958;2023-12-07T04:52:55;18.35;;;10.00;;
22334;SDS011;11335;43.848;25.958;2023-12-07T04:55:40;17.00;;;9.25;;
22334;SDS011;11335;43.848;25.958;2023-12-07T04:58:28;18.30;;;9.60;;
22334;SDS011;11335;43.848;25.958;2023-12-07T05:01:13;17.35;;;8.95;;
22334;SDS011;11335;43.848;25.958;2023-12-07T05:03:59;16.88;;;9.15;;
22334;SDS011;11335;43.848;25.958;2023-12-07T05:06:45;19.08;;;9.63;;
22334;SDS011;11335;43.848;25.958;2023-12-07T05:09:30;20.42;;;8.82;;
22334;SDS011;11335;43.848;25.958;2023-12-07T05:12:16;19.77;;;9.27;;
22334;SDS011;11335;43.848;25.958;2023-12-07T05:15:02;19.33;;;9.52;;
22334;SDS011;11335;43.848;25.958;2023-12-07T05:17:49;18.48;;;9.27;;
22334;SDS011;11335;43.848;25.958;2023-12-07T05:20:35;18.25;;;8.95;;
22334;SDS011;11335;43.848;25.958;2023-12-07T05:23:24;17.85;;;9.40;;
22334;SDS011;11335;43.848;25.958;2023-12-07T05:26:09;19.25;;;9.68;;
22334;SDS011;11335;43.848;25.958;2023-12-07T05:28:56;17.25;;;8.50;;
22334;SDS011;11335;43.848;25.958;2023-12-07T05:31:41;16.52;;;8.93;;
22334;SDS011;11335;43.848;25.958;2023-12-07T05:34:27;17.88;;;9.02;;
22334;SDS011;11335;43.848;25.958;2023-12-07T05:37:13;15.75;;;8.80;;
22334;SDS011;11335;43.848;25.958;2023-12-07T05:39:58;17.30;;;8.50;;
22334;SDS011;11335;43.848;25.958;2023-12-07T05:42:44;16.25;;;8.80;;
22334;SDS011;11335;43.848;25.958;2023-12-07T05:45:30;15.82;;;8.38;;
22334;SDS011;11335;43.848;25.958;2023-12-07T05:48:15;16.88;;;9.02;;
22334;SDS011;11335;43.848;25.958;2023-12-07T05:51:01;15.45;;;8.70;;
22334;SDS011;11335;43.848;25.958;2023-12-07T05:53:47;16.40;;;8.40;;
22334;SDS011;11335;43.848;25.958;2023-12-07T05:56:32;17.48;;;8.85;;
22334;SDS011;11335;43.848;25.958;2023-12-07T05:59:18;16.50;;;9.38;;
22334;SDS011;11335;43.848;25.958;2023-12-07T06:02:04;17.95;;;9.27;;
22334;SDS011;11335;43.848;25.958;2023-12-07T06:04:49;19.48;;;10.18;;
22334;SDS011;11335;43.848;25.958;2023-12-07T06:07:35;17.17;;;8.50;;
22334;SDS011;11335;43.848;25.958;2023-12-07T06:10:21;14.95;;;8.60;;
22334;SDS011;11335;43.848;25.958;2023-12-07T06:13:06;17.83;;;9.23;;
22334;SDS011;11335;43.848;25.958;2023-12-07T06:15:52;15.75;;;8.80;;
22334;SDS011;11335;43.848;25.958;2023-12-07T06:18:37;16.85;;;8.90;;
22334;SDS011;11335;43.848;25.958;2023-12-07T06:21:23;17.30;;;8.93;;
22334;SDS011;11335;43.848;25.958;2023-12-07T06:24:10;15.90;;;8.57;;
22334;SDS011;11335;43.848;25.958;2023-12-07T06:26:56;16.27;;;9.55;;
22334;SDS011;11335;43.848;25.958;2023-12-07T06:29:42;16.75;;;9.10;;
22334;SDS011;11335;43.848;25.958;2023-12-07T06:32:28;18.33;;;9.50;;
22334;SDS011;11335;43.848;25.958;2023-12-07T06:35:14;15.80;;;8.95;;
22334;SDS011;11335;43.848;25.958;2023-12-07T06:37:59;15.82;;;8.50;;
22334;SDS011;11335;43.848;25.958;2023-12-07T06:40:45;17.13;;;9.02;;
22334;SDS011;11335;43.848;25.958;2023-12-07T06:43:30;16.85;;;8.55;;
22334;SDS011;11335;43.848;25.958;2023-12-07T06:46:16;17.63;;;9.65;;
22334;SDS011;11335;43.848;25.958;2023-12-07T06:49:02;20.55;;;9.85;;
22334;SDS011;11335;43.848;25.958;2023-12-07T06:51:47;18.52;;;10.18;;
22334;SDS011;11335;43.848;25.958;2023-12-07T06:54:33;23.38;;;9.77;;
22334;SDS011;11335;43.848;25.958;2023-12-07T06:57:19;19.27;;;8.93;;
22334;SDS011;11335;43.848;25.958;2023-12-07T07:00:04;16.55;;;8.45;;
22334;SDS011;11335;43.848;25.958;2023-12-07T07:02:55;16.25;;;8.82;;
22334;SDS011;11335;43.848;25.958;2023-12-07T07:05:41;18.85;;;8.93;;
22334;SDS011;11335;43.848;25.958;2023-12-07T07:08:26;20.08;;;10.07;;
22334;SDS011;11335;43.848;25.958;2023-12-07T07:11:12;17.63;;;9.70;;
22334;SDS011;11335;43.848;25.958;2023-12-07T07:14:01;19.20;;;9.95;;
22334;SDS011;11335;43.848;25.958;2023-12-07T07:16:47;19.35;;;9.52;;
22334;SDS011;11335;43.848;25.958;2023-12-07T07:19:32;21.15;;;10.52;;
22334;SDS011;11335;43.848;25.958;2023-12-07T07:22:18;19.23;;;10.30;;
22334;SDS011;11335;43.848;25.958;2023-12-07T07:25:03;18.65;;;10.02;;
22334;SDS011;11335;43.848;25.958;2023-12-07T07:27:49;20.58;;;10.18;;
22334;SDS011;11335;43.848;25.958;2023-12-07T07:30:35;21.17;;;10.40;;
22334;SDS011;11335;43.848;25.958;2023-12-07T07:33:21;19.60;;;10.15;;
22334;SDS011;11335;43.848;25.958;2023-12-07T07:36:07;18.85;;;10.35;;
22334;SDS011;11335;43.848;25.958;2023-12-07T07:38:52;15.10;;;9.10;;
22334;SDS011;11335;43.848;25.958;2023-12-07T07:41:38;21.60;;;10.55;;
22334;SDS011;11335;43.848;25.958;2023-12-07T07:44:24;19.98;;;10.63;;
22334;SDS011;11335;43.848;25.958;2023-12-07T07:47:09;21.25;;;10.32;;
22334;SDS011;11335;43.848;25.958;2023-12-07T07:49:55;20.20;;;10.73;;
22334;SDS011;11335;43.848;25.958;2023-12-07T07:52:40;19.83;;;10.80;;
22334;SDS011;11335;43.848;25.958;2023-12-07T07:55:26;19.95;;;10.70;;
22334;SDS011;11335;43.848;25.958;2023-12-07T07:58:11;21.05;;;11.30;;
22334;SDS011;11335;43.848;25.958;2023-12-07T08:00:57;17.50;;;9.48;;
22334;SDS011;11335;43.848;25.958;2023-12-07T08:03:43;20.23;;;9.85;;
22334;SDS011;11335;43.848;25.958;2023-12-07T08:06:28;21.02;;;10.55;;
22334;SDS011;11335;43.848;25.958;2023-12-07T08:09:14;19.13;;;10.32;;
22334;SDS011;11335;43.848;25.958;2023-12-07T08:11:59;22.27;;;11.65;;
22334;SDS011;11335;43.848;25.958;2023-12-07T08:14:46;19.80;;;11.50;;
22334;SDS011;11335;43.848;25.958;2023-12-07T08:17:33;21.48;;;10.48;;
22334;SDS011;11335;43.848;25.958;2023-12-07T08:20:19;17.27;;;9.45;;
22334;SDS011;11335;43.848;25.958;2023-12-07T08:23:04;20.33;;;10.70;;
22334;SDS011;11335;43.848;25.958;2023-12-07T08:25:50;21.83;;;10.90;;
22334;SDS011;11335;43.848;25.958;2023-12-07T08:28:36;20.98;;;11.48;;
22334;SDS011;11335;43.848;25.958;2023-12-07T08:31:22;22.40;;;10.55;;
22334;SDS011;11335;43.848;25.958;2023-12-07T08:34:09;25.00;;;11.85;;
22334;SDS011;11335;43.848;25.958;2023-12-07T08:36:54;22.23;;;11.23;;
22334;SDS011;11335;43.848;25.958;2023-12-07T08:39:40;20.42;;;10.65;;
22334;SDS011;11335;43.848;25.958;2023-12-07T08:42:26;19.38;;;10.88;;
22334;SDS011;11335;43.848;25.958;2023-12-07T08:45:12;24.90;;;12.38;;
22334;SDS011;11335;43.848;25.958;2023-12-07T08:47:59;19.77;;;10.35;;
22334;SDS011;11335;43.848;25.958;2023-12-07T08:50:44;18.75;;;10.38;;
22334;SDS011;11335;43.848;25.958;2023-12-07T08:53:30;20.30;;;11.02;;
22334;SDS011;11335;43.848;25.958;2023-12-07T08:56:16;19.55;;;9.25;;
22334;SDS011;11335;43.848;25.958;2023-12-07T08:59:02;20.33;;;10.70;;
22334;SDS011;11335;43.848;25.958;2023-12-07T09:01:47;20.08;;;11.20;;
22334;SDS011;11335;43.848;25.958;2023-12-07T09:04:33;18.30;;;10.30;;
22334;SDS011;11335;43.848;25.958;2023-12-07T09:07:18;16.02;;;8.73;;
22334;SDS011;11335;43.848;25.958;2023-12-07T09:10:04;18.00;;;9.15;;
22334;SDS011;11335;43.848;25.958;2023-12-07T09:12:50;17.08;;;9.77;;
22334;SDS011;11335;43.848;25.958;2023-12-07T09:15:35;16.35;;;8.90;;
22334;SDS011;11335;43.848;25.958;2023-12-07T09:18:23;20.50;;;9.85;;
22334;SDS011;11335;43.848;25.958;2023-12-07T09:21:08;21.92;;;10.52;;
22334;SDS011;11335;43.848;25.958;2023-12-07T09:23:54;15.35;;;9.18;;
22334;SDS011;11335;43.848;25.958;2023-12-07T09:26:40;16.83;;;10.15;;
22334;SDS011;11335;43.848;25.958;2023-12-07T09:29:25;19.30;;;11.10;;
22334;SDS011;11335;43.848;25.958;2023-12-07T09:32:11;14.63;;;8.57;;
22334;SDS011;11335;43.848;25.958;2023-12-07T09:34:56;14.18;;;7.78;;
22334;SDS011;11335;43.848;25.958;2023-12-07T09:37:42;14.55;;;8.05;;
22334;SDS011;11335;43.848;25.958;2023-12-07T09:40:29;14.05;;;8.15;;
22334;SDS011;11335;43.848;25.958;2023-12-07T09:43:14;17.17;;;8.90;;
22334;SDS011;11335;43.848;25.958;2023-12-07T09:46:00;14.45;;;8.00;;
22334;SDS011;11335;43.848;25.958;2023-12-07T09:48:46;15.68;;;8.13;;
22334;SDS011;11335;43.848;25.958;2023-12-07T09:51:34;15.30;;;8.13;;
22334;SDS011;11335;43.848;25.958;2023-12-07T09:54:21;15.85;;;8.57;;
22334;SDS011;11335;43.848;25.958;2023-12-07T09:57:07;18.27;;;8.80;;
22334;SDS011;11335;43.848;25.958;2023-12-07T09:59:57;16.08;;;8.93;;
22334;SDS011;11335;43.848;25.958;2023-12-07T10:02:44;16.63;;;8.80;;
22334;SDS011;11335;43.848;25.958;2023-12-07T10:05:30;16.17;;;8.90;;
22334;SDS011;11335;43.848;25.958;2023-12-07T10:08:17;17.27;;;9.57;;
22334;SDS011;11335;43.848;25.958;2023-12-07T10:11:10;15.40;;;8.40;;
22334;SDS011;11335;43.848;25.958;2023-12-07T10:13:58;19.70;;;10.10;;
22334;SDS011;11335;43.848;25.958;2023-12-07T10:16:53;19.63;;;10.75;;
22334;SDS011;11335;43.848;25.958;2023-12-07T10:19:40;17.70;;;10.00;;
22334;SDS011;11335;43.848;25.958;2023-12-07T10:22:26;15.05;;;9.50;;
22334;SDS011;11335;43.848;25.958;2023-12-07T10:25:11;17.85;;;9.65;;
22334;SDS011;11335;43.848;25.958;2023-12-07T10:27:57;15.40;;;8.88;;
22334;SDS011;11335;43.848;25.958;2023-12-07T10:30:43;16.23;;;8.77;;
22334;SDS011;11335;43.848;25.958;2023-12-07T10:33:29;18.17;;;9.88;;
22334;SDS011;11335;43.848;25.958;2023-12-07T10:36:15;19.58;;;9.48;;
22334;SDS011;11335;43.848;25.958;2023-12-07T10:39:01;15.25;;;8.93;;
22334;SDS011;11335;43.848;25.958;2023-12-07T10:41:46;15.77;;;8.70;;
22334;SDS011;11335;43.848;25.958;2023-12-07T10:44:33;17.00;;;9.25;;
22334;SDS011;11335;43.848;25.958;2023-12-07T10:47:21;19.58;;;9.75;;
22334;SDS011;11335;43.848;25.958;2023-12-07T10:50:08;17.52;;;9.70;;
22334;SDS011;11335;43.848;25.958;2023-12-07T10:52:56;17.60;;;9.52;;
22334;SDS011;11335;43.848;25.958;2023-12-07T10:55:45;16.00;;;8.55;;
22334;SDS011;11335;43.848;25.958;2023-12-07T10:58:32;20.20;;;10.63;;
22334;SDS011;11335;43.848;25.958;2023-12-07T11:01:21;20.77;;;10.38;;
22334;SDS011;11335;43.848;25.958;2023-12-07T11:04:10;23.08;;;10.38;;
22334;SDS011;11335;43.848;25.958;2023-12-07T11:06:56;16.48;;;9.40;;
22334;SDS011;11335;43.848;25.958;2023-12-07T11:09:45;16.27;;;8.95;;
22334;SDS011;11335;43.848;25.958;2023-12-07T11:15:37;16.27;;;9.32;;
22334;SDS011;11335;43.848;25.958;2023-12-07T11:18:26;14.80;;;8.60;;
22334;SDS011;11335;43.848;25.958;2023-12-07T11:21:12;15.32;;;8.50;;
22334;SDS011;11335;43.848;25.958;2023-12-07T11:24:01;17.15;;;8.40;;
22334;SDS011;11335;43.848;25.958;2023-12-07T11:26:47;19.15;;;8.95;;
22334;SDS011;11335;43.848;25.958;2023-12-07T11:29:32;19.13;;;9.10;;
22334;SDS011;11335;43.848;25.958;2023-12-07T11:32:18;16.20;;;8.90;;
22334;SDS011;11335;43.848;25.958;2023-12-07T11:35:04;15.35;;;8.05;;
22334;SDS011;11335;43.848;25.958;2023-12-07T11:38:02;16.60;;;9.30;;
22334;SDS011;11335;43.848;25.958;2023-12-07T11:40:58;14.88;;;8.20;;
22334;SDS011;11335;43.848;25.958;2023-12-07T11:43:44;16.65;;;9.07;;
22334;SDS011;11335;43.848;25.958;2023-12-07T11:46:30;15.98;;;8.95;;
22334;SDS011;11335;43.848;25.958;2023-12-07T11:49:16;17.38;;;8.45;;
22334;SDS011;11335;43.848;25.958;2023-12-07T11:52:12;19.80;;;9.02;;
22334;SDS011;11335;43.848;25.958;2023-12-07T11:54:58;14.23;;;8.45;;
22334;SDS011;11335;43.848;25.958;2023-12-07T11:57:43;13.07;;;7.68;;
22334;SDS011;11335;43.848;25.958;2023-12-07T12:00:29;18.48;;;9.07;;
22334;SDS011;11335;43.848;25.958;2023-12-07T12:03:15;16.13;;;8.73;;
22334;SDS011;11335;43.848;25.958;2023-12-07T12:06:02;15.52;;;8.88;;
22334;SDS011;11335;43.848;25.958;2023-12-07T12:08:48;17.23;;;9.05;;
22334;SDS011;11335;43.848;25.958;2023-12-07T12:11:34;18.05;;;9.55;;
22334;SDS011;11335;43.848;25.958;2023-12-07T12:14:19;20.85;;;10.55;;
22334;SDS011;11335;43.848;25.958;2023-12-07T12:17:05;19.77;;;10.27;;
22334;SDS011;11335;43.848;25.958;2023-12-07T12:19:51;16.67;;;9.50;;
22334;SDS011;11335;43.848;25.958;2023-12-07T12:22:40;16.63;;;9.80;;
22334;SDS011;11335;43.848;25.958;2023-12-07T12:25:26;19.20;;;10.27;;
22334;SDS011;11335;43.848;25.958;2023-12-07T12:28:15;21.08;;;11.25;;
22334;SDS011;11335;43.848;25.958;2023-12-07T12:31:01;24.13;;;11.82;;
22334;SDS011;11335;43.848;25.958;2023-12-07T12:33:47;21.02;;;11.40;;
22334;SDS011;11335;43.848;25.958;2023-12-07T12:36:34;17.08;;;10.05;;
22334;SDS011;11335;43.848;25.958;2023-12-07T12:39:19;18.25;;;10.32;;
22334;SDS011;11335;43.848;25.958;2023-12-07T12:42:05;21.92;;;11.80;;
22334;SDS011;11335;43.848;25.958;2023-12-07T12:44:51;24.35;;;13.20;;
22334;SDS011;11335;43.848;25.958;2023-12-07T12:47:36;22.75;;;11.23;;
22334;SDS011;11335;43.848;25.958;2023-12-07T12:53:41;17.33;;;9.88;;
22334;SDS011;11335;43.848;25.958;2023-12-07T12:56:27;19.13;;;10.27;;
22334;SDS011;11335;43.848;25.958;2023-12-07T12:59:13;16.67;;;9.77;;
22334;SDS011;11335;43.848;25.958;2023-12-07T13:01:59;20.90;;;10.98;;
22334;SDS011;11335;43.848;25.958;2023-12-07T13:04:44;25.02;;;12.23;;
22334;SDS011;11335;43.848;25.958;2023-12-07T13:07:30;21.70;;;11.68;;
22334;SDS011;11335;43.848;25.958;2023-12-07T13:10:16;19.33;;;10.88;;
22334;SDS011;11335;43.848;25.958;2023-12-07T13:13:02;19.63;;;10.50;;
22334;SDS011;11335;43.848;25.958;2023-12-07T13:15:49;19.65;;;11.20;;
22334;SDS011;11335;43.848;25.958;2023-12-07T13:18:34;19.90;;;10.82;;
22334;SDS011;11335;43.848;25.958;2023-12-07T13:21:23;19.52;;;11.25;;
22334;SDS011;11335;43.848;25.958;2023-12-07T13:24:08;17.70;;;10.63;;
22334;SDS011;11335;43.848;25.958;2023-12-07T13:26:57;23.45;;;12.15;;
22334;SDS011;11335;43.848;25.958;2023-12-07T13:29:45;20.27;;;12.07;;
22334;SDS011;11335;43.848;25.958;2023-12-07T13:32:31;23.25;;;11.80;;
22334;SDS011;11335;43.848;25.958;2023-12-07T13:35:17;24.38;;;11.70;;
22334;SDS011;11335;43.848;25.958;2023-12-07T13:38:03;23.38;;;12.48;;
22334;SDS011;11335;43.848;25.958;2023-12-07T13:40:49;21.58;;;12.30;;
22334;SDS011;11335;43.848;25.958;2023-12-07T13:43:35;21.40;;;11.68;;
22334;SDS011;11335;43.848;25.958;2023-12-07T13:46:20;20.17;;;11.10;;
22334;SDS011;11335;43.848;25.958;2023-12-07T13:49:06;19.88;;;11.02;;
22334;SDS011;11335;43.848;25.958;2023-12-07T13:51:51;19.05;;;10.77;;
22334;SDS011;11335;43.848;25.958;2023-12-07T13:54:38;18.15;;;10.05;;
22334;SDS011;11335;43.848;25.958;2023-12-07T13:57:24;17.52;;;10.18;;
22334;SDS011;11335;43.848;25.958;2023-12-07T14:00:10;19.25;;;10.60;;
22334;SDS011;11335;43.848;25.958;2023-12-07T14:02:58;24.42;;;12.15;;
22334;SDS011;11335;43.848;25.958;2023-12-07T14:05:44;28.90;;;13.20;;
22334;SDS011;11335;43.848;25.958;2023-12-07T14:08:31;24.52;;;12.32;;
22334;SDS011;11335;43.848;25.958;2023-12-07T14:11:17;24.85;;;13.10;;
22334;SDS011;11335;43.848;25.958;2023-12-07T14:14:02;24.63;;;12.98;;
22334;SDS011;11335;43.848;25.958;2023-12-07T14:16:49;22.35;;;12.70;;
22334;SDS011;11335;43.848;25.958;2023-12-07T14:19:35;22.17;;;12.75;;
22334;SDS011;11335;43.848;25.958;2023-12-07T14:22:21;22.83;;;13.00;;
22334;SDS011;11335;43.848;25.958;2023-12-07T14:25:07;26.38;;;12.70;;
22334;SDS011;11335;43.848;25.958;2023-12-07T14:27:52;20.80;;;11.93;;
22334;SDS011;11335;43.848;25.958;2023-12-07T14:30:38;21.33;;;11.85;;
22334;SDS011;11335;43.848;25.958;2023-12-07T14:33:23;24.10;;;13.15;;
22334;SDS011;11335;43.848;25.958;2023-12-07T14:36:09;23.02;;;12.50;;
22334;SDS011;11335;43.848;25.958;2023-12-07T14:38:55;25.77;;;12.98;;
22334;SDS011;11335;43.848;25.958;2023-12-07T14:41:41;27.92;;;14.75;;
22334;SDS011;11335;43.848;25.958;2023-12-07T14:44:26;27.55;;;14.55;;
22334;SDS011;11335;43.848;25.958;2023-12-07T14:47:12;26.85;;;13.68;;
22334;SDS011;11335;43.848;25.958;2023-12-07T14:49:58;30.05;;;15.95;;
22334;SDS011;11335;43.848;25.958;2023-12-07T14:52:43;30.83;;;14.90;;
22334;SDS011;11335;43.848;25.958;2023-12-07T14:55:29;26.27;;;14.07;;
22334;SDS011;11335;43.848;25.958;2023-12-07T14:58:15;31.58;;;16.40;;
22334;SDS011;11335;43.848;25.958;2023-12-07T15:01:00;31.58;;;16.67;;
22334;SDS011;11335;43.848;25.958;2023-12-07T15:03:48;33.63;;;16.48;;
22334;SDS011;11335;43.848;25.958;2023-12-07T15:06:33;32.80;;;16.98;;
22334;SDS011;11335;43.848;25.958;2023-12-07T15:09:19;31.15;;;17.35;;
22334;SDS011;11335;43.848;25.958;2023-12-07T15:12:05;34.35;;;16.77;;
22334;SDS011;11335;43.848;25.958;2023-12-07T15:14:51;35.38;;;17.70;;
22334;SDS011;11335;43.848;25.958;2023-12-07T15:17:36;36.03;;;18.70;;
22334;SDS011;11335;43.848;25.958;2023-12-07T15:20:22;30.55;;;15.80;;
22334;SDS011;11335;43.848;25.958;2023-12-07T15:23:09;35.10;;;17.15;;
22334;SDS011;11335;43.848;25.958;2023-12-07T15:25:54;31.60;;;17.50;;
22334;SDS011;11335;43.848;25.958;2023-12-07T15:28:40;33.95;;;17.95;;
22334;SDS011;11335;43.848;25.958;2023-12-07T15:31:26;32.70;;;17.75;;
22334;SDS011;11335;43.848;25.958;2023-12-07T15:34:12;37.38;;;20.23;;
22334;SDS011;11335;43.848;25.958;2023-12-07T15:36:57;35.47;;;19.15;;
22334;SDS011;11335;43.848;25.958;2023-12-07T15:39:43;33.70;;;17.45;;
22334;SDS011;11335;43.848;25.958;2023-12-07T15:42:29;32.95;;;16.98;;
22334;SDS011;11335;43.848;25.958;2023-12-07T15:45:14;33.95;;;17.88;;
22334;SDS011;11335;43.848;25.958;2023-12-07T15:48:00;35.40;;;17.98;;
22334;SDS011;11335;43.848;25.958;2023-12-07T15:50:46;33.83;;;18.75;;
22334;SDS011;11335;43.848;25.958;2023-12-07T15:53:32;34.97;;;17.30;;
22334;SDS011;11335;43.848;25.958;2023-12-07T15:56:17;40.60;;;19.45;;
22334;SDS011;11335;43.848;25.958;2023-12-07T15:59:03;32.88;;;17.20;;
22334;SDS011;11335;43.848;25.958;2023-12-07T16:01:52;34.20;;;17.95;;
22334;SDS011;11335;43.848;25.958;2023-12-07T16:04:37;31.02;;;16.30;;
22334;SDS011;11335;43.848;25.958;2023-12-07T16:07:23;29.00;;;16.27;;
22334;SDS011;11335;43.848;25.958;2023-12-07T16:10:08;26.42;;;15.43;;
22334;SDS011;11335;43.848;25.958;2023-12-07T16:12:54;29.42;;;14.88;;
22334;SDS011;11335;43.848;25.958;2023-12-07T16:15:40;24.58;;;13.65;;
22334;SDS011;11335;43.848;25.958;2023-12-07T16:18:25;27.10;;;13.70;;